M/V Raymond M. — WDC4224 — position and weather

sailwx.info

Track history (hours):
 
Tides and Currents Weather Stations Pressure Air Temp Water Temp Dewpoint Dewpoint Depression Visibility Wind Speed Wind Dir Waves Ship Positions

M/V Raymond M.

Owner: RM Leasing, Clute, TX. More information available from US FCC via Universal Licensing System and Coast Guard Vessel Documentation Center.

Last reported at 2017-Oct-17 06:24 UTC. Time now 2017-Oct-20 03:06 UTC.
Position N 29°37' W 092°17'.

; draft 2.2 m.

MMSI: 367021170.

Date/timePositionNaut miles runAvg speedWind from/ knotsBaromVisibWave heightAir tempDewpointWater temp
2017-Oct-17 06:24N 29°37' W 092°17'4 9.5
2017-Oct-17 05:57N 29°41' W 092°15'510.5
2017-Oct-17 05:30N 29°45' W 092°13'2 4.7
2017-Oct-17 05:01N 29°47' W 092°11'0 0.0
2017-Oct-17 04:31N 29°47' W 092°11'0 0.0
2017-Oct-17 04:01N 29°47' W 092°11'0 0.0
2017-Oct-17 03:30N 29°47' W 092°11'0 0.3
2017-Oct-17 03:00N 29°47' W 092°11'0 0.0
2017-Oct-17 02:31N 29°47' W 092°11'0 0.0
2017-Oct-17 02:01N 29°47' W 092°11'0 0.1
2017-Oct-17 01:30N 29°47' W 092°11'4 7.1
2017-Oct-17 01:00N 29°44' W 092°14'611.1
2017-Oct-17 00:30N 29°39' W 092°16'57 2.3
2017-Oct-16 00:01N 29°49' W 093°20'0 1.9
2017-Oct-16 00:00N 29°49' W 093°20'1 1.9
2017-Oct-15 23:26N 29°48' W 093°21'58 2.3
2017-Oct-14 22:10N 29°41' W 092°15'317.1
2017-Oct-14 22:00N 29°44' W 092°15'612.5
2017-Oct-14 21:30N 29°47' W 092°09'0 0.0
2017-Oct-14 21:00N 29°47' W 092°09'0 0.0
2017-Oct-14 20:30N 29°47' W 092°09'0 0.0
2017-Oct-14 20:00N 29°47' W 092°09'0 0.0
2017-Oct-14 19:30N 29°47' W 092°09'0 0.0
2017-Oct-14 19:00N 29°47' W 092°09'0 0.0
2017-Oct-14 18:30N 29°47' W 092°09'0 0.0
2017-Oct-14 18:00N 29°47' W 092°09'0 0.5
2017-Oct-14 17:30N 29°47' W 092°09'5 9.8
2017-Oct-14 17:00N 29°45' W 092°13'7 9.6
2017-Oct-14 16:16N 29°38' W 092°16'4 0.5
2017-Oct-14 09:34N 29°41' W 092°15'112.9
2017-Oct-14 09:30N 29°42' W 092°15'611.3
2017-Oct-14 09:00N 29°46' W 092°11'2 4.1
2017-Oct-14 08:30N 29°47' W 092°09'0 0.0
2017-Oct-14 08:00N 29°47' W 092°09'2 4.1
2017-Oct-14 07:30N 29°47' W 092°11'0 0.0
2017-Oct-14 06:04N 29°47' W 092°11'0 0.0
2017-Oct-14 06:01N 29°47' W 092°11'4 8.3
2017-Oct-14 05:31N 29°44' W 092°14'611.1
2017-Oct-14 05:01N 29°39' W 092°16'4 0.3
2017-Oct-13 14:59N 29°42' W 092°15'510.3
2017-Oct-13 14:30N 29°46' W 092°11'3 1.1
2017-Oct-13 11:58N 29°47' W 092°09'2 4.4
2017-Oct-13 11:30N 29°47' W 092°11'0 0.0
2017-Oct-13 10:02N 29°47' W 092°11'0 0.0
2017-Oct-13 10:00N 29°47' W 092°11'2 4.1
2017-Oct-13 09:30N 29°47' W 092°09'0 0.0
2017-Oct-13 09:00N 29°47' W 092°09'0 0.0
2017-Oct-13 08:30N 29°47' W 092°09'0 0.0
2017-Oct-13 08:00N 29°47' W 092°09'0 0.0
2017-Oct-13 07:29N 29°47' W 092°09'0 0.0
2017-Oct-13 07:00N 29°47' W 092°09'0 0.0
2017-Oct-13 06:30N 29°47' W 092°09'0 0.0
2017-Oct-13 06:00N 29°47' W 092°09'0 0.0
2017-Oct-13 05:30N 29°47' W 092°09'4 8.9
2017-Oct-13 05:00N 29°45' W 092°13'612.2
2017-Oct-13 04:30N 29°39' W 092°16'3 0.1
2017-Oct-12 09:39N 29°37' W 092°17'212.4
2017-Oct-12 09:30N 29°38' W 092°16'713.0
2017-Oct-12 09:00N 29°44' W 092°14'510.3
2017-Oct-12 08:30N 29°47' W 092°09'0 0.2
2017-Oct-12 08:00N 29°47' W 092°09'2 3.2
2017-Oct-12 07:30N 29°47' W 092°10'1 1.2
2017-Oct-12 07:01N 29°47' W 092°11'0 0.1
2017-Oct-12 06:31N 29°47' W 092°11'2 4.0
2017-Oct-12 06:00N 29°47' W 092°09'0 0.4
2017-Oct-12 05:31N 29°47' W 092°09'0 0.5
2017-Oct-12 05:00N 29°48' W 092°09'0 0.0
2017-Oct-12 04:30N 29°48' W 092°09'0 0.0
2017-Oct-12 04:01N 29°48' W 092°09'0 0.0
2017-Oct-12 03:31N 29°48' W 092°09'0 0.0
2017-Oct-12 03:01N 29°48' W 092°09'0 0.0
2017-Oct-12 02:31N 29°48' W 092°09'0 0.0
2017-Oct-12 02:00N 29°48' W 092°09'0 0.0
2017-Oct-12 01:31N 29°48' W 092°09'0 0.0
2017-Oct-12 01:01N 29°48' W 092°09'0 0.1
2017-Oct-12 00:31N 29°48' W 092°09'0 0.2
2017-Oct-12 00:01N 29°48' W 092°09'0 0.1
2017-Oct-11 23:31N 29°48' W 092°09'0 0.0
2017-Oct-11 23:00N 29°48' W 092°09'0 0.0
2017-Oct-11 22:31N 29°48' W 092°09'3 6.8
2017-Oct-11 22:01N 29°46' W 092°12'510.1
2017-Oct-11 21:30N 29°41' W 092°15'5712.1
2017-Oct-11 16:46N 29°49' W 093°20'0 0.0
2017-Oct-10 21:32N 29°49' W 093°20'0 6.9
2017-Oct-10 21:30N 29°49' W 093°21'0 0.0
2017-Oct-09 19:59N 29°49' W 093°20'0 0.0
2017-Oct-09 03:58N 29°49' W 093°20'0 0.0
2017-Oct-09 03:15N 29°49' W 093°20'0 0.0
2017-Oct-09 02:46N 29°49' W 093°20'0 0.0
2017-Oct-09 02:29N 29°49' W 093°20'0 0.0
2017-Oct-09 01:50N 29°49' W 093°20'0 0.0
2017-Oct-09 01:30N 29°49' W 093°20'0 0.0
2017-Oct-09 01:00N 29°49' W 093°20'0 0.0
2017-Oct-09 00:26N 29°49' W 093°20'0 0.0
2017-Oct-08 23:51N 29°49' W 093°20'0 0.0
2017-Oct-08 23:29N 29°49' W 093°20'0 0.1
2017-Oct-08 23:00N 29°49' W 093°20'0 0.2
2017-Oct-08 22:29N 29°49' W 093°20'0 0.0
2017-Oct-08 22:00N 29°49' W 093°20'0 0.0
2017-Oct-08 21:29N 29°49' W 093°20'0 0.0
2017-Oct-08 20:58N 29°49' W 093°20'0 0.0
2017-Oct-08 20:16N 29°49' W 093°20'0 0.0
2017-Oct-08 20:00N 29°49' W 093°20'0 0.0
2017-Oct-08 19:30N 29°49' W 093°20'0 0.1
2017-Oct-08 19:00N 29°49' W 093°20'0 0.0
2017-Oct-08 18:30N 29°49' W 093°20'  
Track history (hours):
 
Tides and Currents Weather Stations Pressure Air Temp Water Temp Dewpoint Dewpoint Depression Visibility Wind Speed Wind Dir Waves Ship Positions

M/V Raymond M.

Owner: RM Leasing, Clute, TX. More information available from US FCC via Universal Licensing System and Coast Guard Vessel Documentation Center.

Last reported at 2017-Oct-17 06:24 UTC. Time now 2017-Oct-20 03:06 UTC.
Position N 29°37' W 092°17'.

; draft 2.2 m.

MMSI: 367021170.

Date/timePositionNaut miles runAvg speedWind from/ knotsBaromVisibWave heightAir tempDewpointWater temp
2017-Oct-17 06:24N 29°37' W 092°17'4 9.5
2017-Oct-17 05:57N 29°41' W 092°15'510.5
2017-Oct-17 05:30N 29°45' W 092°13'2 4.7
2017-Oct-17 05:01N 29°47' W 092°11'0 0.0
2017-Oct-17 04:31N 29°47' W 092°11'0 0.0
2017-Oct-17 04:01N 29°47' W 092°11'0 0.0
2017-Oct-17 03:30N 29°47' W 092°11'0 0.3
2017-Oct-17 03:00N 29°47' W 092°11'0 0.0
2017-Oct-17 02:31N 29°47' W 092°11'0 0.0
2017-Oct-17 02:01N 29°47' W 092°11'0 0.1
2017-Oct-17 01:30N 29°47' W 092°11'4 7.1
2017-Oct-17 01:00N 29°44' W 092°14'611.1
2017-Oct-17 00:30N 29°39' W 092°16'57 2.3
2017-Oct-16 00:01N 29°49' W 093°20'0 1.9
2017-Oct-16 00:00N 29°49' W 093°20'1 1.9
2017-Oct-15 23:26N 29°48' W 093°21'58 2.3
2017-Oct-14 22:10N 29°41' W 092°15'317.1
2017-Oct-14 22:00N 29°44' W 092°15'612.5
2017-Oct-14 21:30N 29°47' W 092°09'0 0.0
2017-Oct-14 21:00N 29°47' W 092°09'0 0.0
2017-Oct-14 20:30N 29°47' W 092°09'0 0.0
2017-Oct-14 20:00N 29°47' W 092°09'0 0.0
2017-Oct-14 19:30N 29°47' W 092°09'0 0.0
2017-Oct-14 19:00N 29°47' W 092°09'0 0.0
2017-Oct-14 18:30N 29°47' W 092°09'0 0.0
2017-Oct-14 18:00N 29°47' W 092°09'0 0.5
2017-Oct-14 17:30N 29°47' W 092°09'5 9.8
2017-Oct-14 17:00N 29°45' W 092°13'7 9.6
2017-Oct-14 16:16N 29°38' W 092°16'4 0.5
2017-Oct-14 09:34N 29°41' W 092°15'112.9
2017-Oct-14 09:30N 29°42' W 092°15'611.3
2017-Oct-14 09:00N 29°46' W 092°11'2 4.1
2017-Oct-14 08:30N 29°47' W 092°09'0 0.0
2017-Oct-14 08:00N 29°47' W 092°09'2 4.1
2017-Oct-14 07:30N 29°47' W 092°11'0 0.0
2017-Oct-14 06:04N 29°47' W 092°11'0 0.0
2017-Oct-14 06:01N 29°47' W 092°11'4 8.3
2017-Oct-14 05:31N 29°44' W 092°14'611.1
2017-Oct-14 05:01N 29°39' W 092°16'4 0.3
2017-Oct-13 14:59N 29°42' W 092°15'510.3
2017-Oct-13 14:30N 29°46' W 092°11'3 1.1
2017-Oct-13 11:58N 29°47' W 092°09'2 4.4
2017-Oct-13 11:30N 29°47' W 092°11'0 0.0
2017-Oct-13 10:02N 29°47' W 092°11'0 0.0
2017-Oct-13 10:00N 29°47' W 092°11'2 4.1
2017-Oct-13 09:30N 29°47' W 092°09'0 0.0
2017-Oct-13 09:00N 29°47' W 092°09'0 0.0
2017-Oct-13 08:30N 29°47' W 092°09'0 0.0
2017-Oct-13 08:00N 29°47' W 092°09'0 0.0
2017-Oct-13 07:29N 29°47' W 092°09'0 0.0
2017-Oct-13 07:00N 29°47' W 092°09'0 0.0
2017-Oct-13 06:30N 29°47' W 092°09'0 0.0
2017-Oct-13 06:00N 29°47' W 092°09'0 0.0
2017-Oct-13 05:30N 29°47' W 092°09'4 8.9
2017-Oct-13 05:00N 29°45' W 092°13'612.2
2017-Oct-13 04:30N 29°39' W 092°16'3 0.1
2017-Oct-12 09:39N 29°37' W 092°17'212.4
2017-Oct-12 09:30N 29°38' W 092°16'713.0
2017-Oct-12 09:00N 29°44' W 092°14'510.3
2017-Oct-12 08:30N 29°47' W 092°09'0 0.2
2017-Oct-12 08:00N 29°47' W 092°09'2 3.2
2017-Oct-12 07:30N 29°47' W 092°10'1 1.2
2017-Oct-12 07:01N 29°47' W 092°11'0 0.1
2017-Oct-12 06:31N 29°47' W 092°11'2 4.0
2017-Oct-12 06:00N 29°47' W 092°09'0 0.4
2017-Oct-12 05:31N 29°47' W 092°09'0 0.5
2017-Oct-12 05:00N 29°48' W 092°09'0 0.0
2017-Oct-12 04:30N 29°48' W 092°09'0 0.0
2017-Oct-12 04:01N 29°48' W 092°09'0 0.0
2017-Oct-12 03:31N 29°48' W 092°09'0 0.0
2017-Oct-12 03:01N 29°48' W 092°09'0 0.0
2017-Oct-12 02:31N 29°48' W 092°09'0 0.0
2017-Oct-12 02:00N 29°48' W 092°09'0 0.0
2017-Oct-12 01:31N 29°48' W 092°09'0 0.0
2017-Oct-12 01:01N 29°48' W 092°09'0 0.1
2017-Oct-12 00:31N 29°48' W 092°09'0 0.2
2017-Oct-12 00:01N 29°48' W 092°09'0 0.1
2017-Oct-11 23:31N 29°48' W 092°09'0 0.0
2017-Oct-11 23:00N 29°48' W 092°09'0 0.0
2017-Oct-11 22:31N 29°48' W 092°09'3 6.8
2017-Oct-11 22:01N 29°46' W 092°12'510.1
2017-Oct-11 21:30N 29°41' W 092°15'5712.1
2017-Oct-11 16:46N 29°49' W 093°20'0 0.0
2017-Oct-10 21:32N 29°49' W 093°20'0 6.9
2017-Oct-10 21:30N 29°49' W 093°21'0 0.0
2017-Oct-09 19:59N 29°49' W 093°20'0 0.0
2017-Oct-09 03:58N 29°49' W 093°20'0 0.0
2017-Oct-09 03:15N 29°49' W 093°20'0 0.0
2017-Oct-09 02:46N 29°49' W 093°20'0 0.0
2017-Oct-09 02:29N 29°49' W 093°20'0 0.0
2017-Oct-09 01:50N 29°49' W 093°20'0 0.0
2017-Oct-09 01:30N 29°49' W 093°20'0 0.0
2017-Oct-09 01:00N 29°49' W 093°20'0 0.0
2017-Oct-09 00:26N 29°49' W 093°20'0 0.0
2017-Oct-08 23:51N 29°49' W 093°20'0 0.0
2017-Oct-08 23:29N 29°49' W 093°20'0 0.1
2017-Oct-08 23:00N 29°49' W 093°20'0 0.2
2017-Oct-08 22:29N 29°49' W 093°20'0 0.0
2017-Oct-08 22:00N 29°49' W 093°20'0 0.0
2017-Oct-08 21:29N 29°49' W 093°20'0 0.0
2017-Oct-08 20:58N 29°49' W 093°20'0 0.0
2017-Oct-08 20:16N 29°49' W 093°20'0 0.0
2017-Oct-08 20:00N 29°49' W 093°20'0 0.0
2017-Oct-08 19:30N 29°49' W 093°20'0 0.1
2017-Oct-08 19:00N 29°49' W 093°20'0 0.0
2017-Oct-08 18:30N 29°49' W 093°20'  

Dump ship's entire track history